sensor_id;sensor_type;location;lat;lon;timestamp;temperature;humidity
10384;DHT22;5238;43.508;4.980;2023-04-02T00:00:15;12.10;91.30
10384;DHT22;5238;43.508;4.980;2023-04-02T00:02:47;12.10;91.30
10384;DHT22;5238;43.508;4.980;2023-04-02T00:05:42;12.10;91.30
10384;DHT22;5238;43.508;4.980;2023-04-02T00:08:25;12.00;91.30
10384;DHT22;5238;43.508;4.980;2023-04-02T00:11:08;12.00;91.30
10384;DHT22;5238;43.508;4.980;2023-04-02T00:13:40;12.00;91.30
10384;DHT22;5238;43.508;4.980;2023-04-02T00:16:12;11.90;91.30
10384;DHT22;5238;43.508;4.980;2023-04-02T00:18:45;11.90;91.30
10384;DHT22;5238;43.508;4.980;2023-04-02T00:21:18;11.90;91.30
10384;DHT22;5238;43.508;4.980;2023-04-02T00:23:47;11.90;91.30
10384;DHT22;5238;43.508;4.980;2023-04-02T00:26:23;11.90;91.30
10384;DHT22;5238;43.508;4.980;2023-04-02T00:28:52;11.80;91.30
10384;DHT22;5238;43.508;4.980;2023-04-02T00:31:19;11.80;91.30
10384;DHT22;5238;43.508;4.980;2023-04-02T00:33:48;11.80;91.30
10384;DHT22;5238;43.508;4.980;2023-04-02T00:36:18;11.70;91.30
10384;DHT22;5238;43.508;4.980;2023-04-02T00:38:46;11.70;91.30
10384;DHT22;5238;43.508;4.980;2023-04-02T00:41:20;11.70;91.30
10384;DHT22;5238;43.508;4.980;2023-04-02T00:43:54;11.70;91.30
10384;DHT22;5238;43.508;4.980;2023-04-02T00:46:30;11.60;91.30
10384;DHT22;5238;43.508;4.980;2023-04-02T00:49:22;11.60;91.30
10384;DHT22;5238;43.508;4.980;2023-04-02T00:51:59;11.60;91.30
10384;DHT22;5238;43.508;4.980;2023-04-02T00:54:31;11.50;91.30
10384;DHT22;5238;43.508;4.980;2023-04-02T00:57:00;11.50;91.30
10384;DHT22;5238;43.508;4.980;2023-04-02T00:59:32;11.50;91.30
10384;DHT22;5238;43.508;4.980;2023-04-02T01:02:23;11.50;91.30
10384;DHT22;5238;43.508;4.980;2023-04-02T01:04:52;11.50;91.30
10384;DHT22;5238;43.508;4.980;2023-04-02T01:07:27;11.40;91.30
10384;DHT22;5238;43.508;4.980;2023-04-02T01:13:17;11.40;91.30
10384;DHT22;5238;43.508;4.980;2023-04-02T01:15:59;11.40;91.30
10384;DHT22;5238;43.508;4.980;2023-04-02T01:18:42;11.40;91.30
10384;DHT22;5238;43.508;4.980;2023-04-02T01:21:31;11.40;91.30
10384;DHT22;5238;43.508;4.980;2023-04-02T01:24:07;11.40;91.30
10384;DHT22;5238;43.508;4.980;2023-04-02T01:26:53;11.40;91.30
10384;DHT22;5238;43.508;4.980;2023-04-02T01:29:32;11.40;91.30
10384;DHT22;5238;43.508;4.980;2023-04-02T01:32:02;11.30;91.30
10384;DHT22;5238;43.508;4.980;2023-04-02T01:34:34;11.40;91.30
10384;DHT22;5238;43.508;4.980;2023-04-02T01:37:19;11.30;91.30
10384;DHT22;5238;43.508;4.980;2023-04-02T01:40:03;11.30;91.30
10384;DHT22;5238;43.508;4.980;2023-04-02T01:42:37;11.40;91.30
10384;DHT22;5238;43.508;4.980;2023-04-02T01:45:30;11.40;91.30
10384;DHT22;5238;43.508;4.980;2023-04-02T01:48:02;11.30;91.30
10384;DHT22;5238;43.508;4.980;2023-04-02T01:50:33;11.30;91.30
10384;DHT22;5238;43.508;4.980;2023-04-02T01:53:03;11.30;91.30
10384;DHT22;5238;43.508;4.980;2023-04-02T01:55:41;11.30;91.30
10384;DHT22;5238;43.508;4.980;2023-04-02T01:58:13;11.30;91.30
10384;DHT22;5238;43.508;4.980;2023-04-02T02:00:46;11.40;91.30
10384;DHT22;5238;43.508;4.980;2023-04-02T02:03:16;11.40;91.30
10384;DHT22;5238;43.508;4.980;2023-04-02T02:05:46;11.40;91.30
10384;DHT22;5238;43.508;4.980;2023-04-02T02:08:30;11.50;91.30
10384;DHT22;5238;43.508;4.980;2023-04-02T02:11:00;11.50;91.30
10384;DHT22;5238;43.508;4.980;2023-04-02T02:13:30;11.50;91.30
10384;DHT22;5238;43.508;4.980;2023-04-02T02:16:03;11.60;91.30
10384;DHT22;5238;43.508;4.980;2023-04-02T02:18:34;11.60;91.30
10384;DHT22;5238;43.508;4.980;2023-04-02T02:21:21;11.70;91.30
10384;DHT22;5238;43.508;4.980;2023-04-02T02:23:53;11.70;91.30
10384;DHT22;5238;43.508;4.980;2023-04-02T02:26:22;11.70;91.30
10384;DHT22;5238;43.508;4.980;2023-04-02T02:28:54;11.80;91.30
10384;DHT22;5238;43.508;4.980;2023-04-02T02:31:28;11.80;91.30
10384;DHT22;5238;43.508;4.980;2023-04-02T02:34:00;11.80;91.30
10384;DHT22;5238;43.508;4.980;2023-04-02T02:36:36;11.80;91.30
10384;DHT22;5238;43.508;4.980;2023-04-02T02:39:12;11.90;91.30
10384;DHT22;5238;43.508;4.980;2023-04-02T02:41:50;11.90;91.30
10384;DHT22;5238;43.508;4.980;2023-04-02T02:44:21;11.90;91.30
10384;DHT22;5238;43.508;4.980;2023-04-02T02:46:55;12.00;91.30
10384;DHT22;5238;43.508;4.980;2023-04-02T02:49:27;12.00;91.30
10384;DHT22;5238;43.508;4.980;2023-04-02T02:52:02;12.00;91.30
10384;DHT22;5238;43.508;4.980;2023-04-02T02:54:34;12.00;91.30
10384;DHT22;5238;43.508;4.980;2023-04-02T02:57:08;12.00;91.30
10384;DHT22;5238;43.508;4.980;2023-04-02T02:59:36;12.00;91.30
10384;DHT22;5238;43.508;4.980;2023-04-02T03:02:10;12.00;91.30
10384;DHT22;5238;43.508;4.980;2023-04-02T03:04:38;12.00;91.30
10384;DHT22;5238;43.508;4.980;2023-04-02T03:07:13;12.00;91.30
10384;DHT22;5238;43.508;4.980;2023-04-02T03:09:47;12.00;91.30
10384;DHT22;5238;43.508;4.980;2023-04-02T03:12:33;12.00;91.30
10384;DHT22;5238;43.508;4.980;2023-04-02T03:15:10;12.00;91.30
10384;DHT22;5238;43.508;4.980;2023-04-02T03:17:46;12.00;91.30
10384;DHT22;5238;43.508;4.980;2023-04-02T03:20:20;12.00;91.30
10384;DHT22;5238;43.508;4.980;2023-04-02T03:23:05;12.10;91.30
10384;DHT22;5238;43.508;4.980;2023-04-02T03:25:56;12.10;91.30
10384;DHT22;5238;43.508;4.980;2023-04-02T03:28:42;12.10;91.30
10384;DHT22;5238;43.508;4.980;2023-04-02T03:31:25;12.10;91.30
10384;DHT22;5238;43.508;4.980;2023-04-02T03:33:58;12.20;91.30
10384;DHT22;5238;43.508;4.980;2023-04-02T03:36:29;12.20;91.30
10384;DHT22;5238;43.508;4.980;2023-04-02T03:39:03;12.20;91.30
10384;DHT22;5238;43.508;4.980;2023-04-02T03:41:40;12.20;91.30
10384;DHT22;5238;43.508;4.980;2023-04-02T03:44:19;12.20;91.30
10384;DHT22;5238;43.508;4.980;2023-04-02T03:46:53;12.30;91.30
10384;DHT22;5238;43.508;4.980;2023-04-02T03:49:35;12.30;91.30
10384;DHT22;5238;43.508;4.980;2023-04-02T03:52:08;12.30;91.30
10384;DHT22;5238;43.508;4.980;2023-04-02T03:54:39;12.30;91.30
10384;DHT22;5238;43.508;4.980;2023-04-02T03:57:21;12.30;91.30
10384;DHT22;5238;43.508;4.980;2023-04-02T03:59:55;12.40;91.30
10384;DHT22;5238;43.508;4.980;2023-04-02T04:02:33;12.40;91.30
10384;DHT22;5238;43.508;4.980;2023-04-02T04:05:22;12.40;91.30
10384;DHT22;5238;43.508;4.980;2023-04-02T04:07:54;12.40;91.30
10384;DHT22;5238;43.508;4.980;2023-04-02T04:10:25;12.40;91.30
10384;DHT22;5238;43.508;4.980;2023-04-02T04:13:04;12.40;91.30
10384;DHT22;5238;43.508;4.980;2023-04-02T04:15:40;12.40;91.30
10384;DHT22;5238;43.508;4.980;2023-04-02T04:18:19;12.30;91.30
10384;DHT22;5238;43.508;4.980;2023-04-02T04:20:58;12.30;91.30
10384;DHT22;5238;43.508;4.980;2023-04-02T04:23:30;12.30;91.30
10384;DHT22;5238;43.508;4.980;2023-04-02T04:26:03;12.30;91.30
10384;DHT22;5238;43.508;4.980;2023-04-02T04:28:53;12.30;91.30
10384;DHT22;5238;43.508;4.980;2023-04-02T04:31:40;12.20;91.30
10384;DHT22;5238;43.508;4.980;2023-04-02T04:34:16;12.20;91.30
10384;DHT22;5238;43.508;4.980;2023-04-02T04:36:48;12.20;91.30
10384;DHT22;5238;43.508;4.980;2023-04-02T04:39:24;12.20;91.30
10384;DHT22;5238;43.508;4.980;2023-04-02T04:42:11;12.20;91.30
10384;DHT22;5238;43.508;4.980;2023-04-02T04:44:44;12.20;91.30
10384;DHT22;5238;43.508;4.980;2023-04-02T04:47:25;12.20;91.30
10384;DHT22;5238;43.508;4.980;2023-04-02T04:49:59;12.20;91.30
10384;DHT22;5238;43.508;4.980;2023-04-02T04:52:35;12.20;91.30
10384;DHT22;5238;43.508;4.980;2023-04-02T04:55:14;12.10;91.30
10384;DHT22;5238;43.508;4.980;2023-04-02T04:57:47;12.10;91.30
10384;DHT22;5238;43.508;4.980;2023-04-02T05:00:20;12.10;91.30
10384;DHT22;5238;43.508;4.980;2023-04-02T05:02:52;12.10;91.30
10384;DHT22;5238;43.508;4.980;2023-04-02T05:05:26;12.10;91.30
10384;DHT22;5238;43.508;4.980;2023-04-02T05:07:59;12.10;91.30
10384;DHT22;5238;43.508;4.980;2023-04-02T05:10:35;12.10;91.30
10384;DHT22;5238;43.508;4.980;2023-04-02T05:13:12;12.10;91.30
10384;DHT22;5238;43.508;4.980;2023-04-02T05:15:49;12.10;91.30
10384;DHT22;5238;43.508;4.980;2023-04-02T05:18:27;12.10;91.30
10384;DHT22;5238;43.508;4.980;2023-04-02T05:21:01;12.10;91.30
10384;DHT22;5238;43.508;4.980;2023-04-02T05:23:59;12.10;91.30
10384;DHT22;5238;43.508;4.980;2023-04-02T05:26:30;12.10;91.30
10384;DHT22;5238;43.508;4.980;2023-04-02T05:46:32;12.10;91.30
10384;DHT22;5238;43.508;4.980;2023-04-02T07:48:53;18.40;91.30
10384;DHT22;5238;43.508;4.980;2023-04-02T07:51:30;18.10;91.30
10384;DHT22;5238;43.508;4.980;2023-04-02T08:35:02;20.70;91.30
10384;DHT22;5238;43.508;4.980;2023-04-02T09:09:55;21.20;91.30
10384;DHT22;5238;43.508;4.980;2023-04-02T09:12:40;21.20;91.30
10384;DHT22;5238;43.508;4.980;2023-04-02T09:15:39;21.20;91.30
10384;DHT22;5238;43.508;4.980;2023-04-02T09:18:21;21.20;91.30
10384;DHT22;5238;43.508;4.980;2023-04-02T09:21:25;21.30;91.30
10384;DHT22;5238;43.508;4.980;2023-04-02T09:23:58;21.30;91.30
10384;DHT22;5238;43.508;4.980;2023-04-02T09:26:47;21.40;91.30
10384;DHT22;5238;43.508;4.980;2023-04-02T09:29:46;21.50;91.30
10384;DHT22;5238;43.508;4.980;2023-04-02T09:32:47;21.60;91.30
10384;DHT22;5238;43.508;4.980;2023-04-02T09:35:15;21.80;91.30
10384;DHT22;5238;43.508;4.980;2023-04-02T09:37:44;22.00;91.30
10384;DHT22;5238;43.508;4.980;2023-04-02T09:40:25;22.00;91.30
10384;DHT22;5238;43.508;4.980;2023-04-02T09:43:09;22.00;91.30
10384;DHT22;5238;43.508;4.980;2023-04-02T09:45:37;21.90;91.30
10384;DHT22;5238;43.508;4.980;2023-04-02T09:48:24;22.00;91.30
10384;DHT22;5238;43.508;4.980;2023-04-02T09:54:15;22.00;91.30
10384;DHT22;5238;43.508;4.980;2023-04-02T09:57:01;22.00;91.30
10384;DHT22;5238;43.508;4.980;2023-04-02T09:59:30;22.00;91.30
10384;DHT22;5238;43.508;4.980;2023-04-02T10:01:59;22.00;91.30
10384;DHT22;5238;43.508;4.980;2023-04-02T10:04:36;22.00;91.30
10384;DHT22;5238;43.508;4.980;2023-04-02T10:07:30;22.10;91.30
10384;DHT22;5238;43.508;4.980;2023-04-02T10:10:21;22.10;91.30
10384;DHT22;5238;43.508;4.980;2023-04-02T10:12:53;22.10;91.30
10384;DHT22;5238;43.508;4.980;2023-04-02T10:15:37;22.10;91.30
10384;DHT22;5238;43.508;4.980;2023-04-02T10:18:13;22.10;91.30
10384;DHT22;5238;43.508;4.980;2023-04-02T10:20:43;22.10;91.30
10384;DHT22;5238;43.508;4.980;2023-04-02T10:23:14;22.20;91.30
10384;DHT22;5238;43.508;4.980;2023-04-02T10:25:50;22.20;91.30
10384;DHT22;5238;43.508;4.980;2023-04-02T10:28:28;22.20;91.30
10384;DHT22;5238;43.508;4.980;2023-04-02T10:31:06;22.10;91.30
10384;DHT22;5238;43.508;4.980;2023-04-02T10:33:39;22.10;91.30
10384;DHT22;5238;43.508;4.980;2023-04-02T10:36:20;22.00;91.30
10384;DHT22;5238;43.508;4.980;2023-04-02T10:38:50;22.00;91.30
10384;DHT22;5238;43.508;4.980;2023-04-02T10:41:32;22.00;91.30
10384;DHT22;5238;43.508;4.980;2023-04-02T10:44:17;21.90;91.30
10384;DHT22;5238;43.508;4.980;2023-04-02T10:46:58;21.90;91.30
10384;DHT22;5238;43.508;4.980;2023-04-02T10:49:33;21.90;91.30
10384;DHT22;5238;43.508;4.980;2023-04-02T10:52:07;22.00;91.30
10384;DHT22;5238;43.508;4.980;2023-04-02T10:54:47;22.10;91.30
10384;DHT22;5238;43.508;4.980;2023-04-02T10:57:30;22.20;91.30
10384;DHT22;5238;43.508;4.980;2023-04-02T11:00:07;22.10;91.30
10384;DHT22;5238;43.508;4.980;2023-04-02T11:02:55;22.20;91.30
10384;DHT22;5238;43.508;4.980;2023-04-02T11:05:31;22.20;91.30
10384;DHT22;5238;43.508;4.980;2023-04-02T11:08:04;22.20;91.30
10384;DHT22;5238;43.508;4.980;2023-04-02T11:10:46;22.30;91.30
10384;DHT22;5238;43.508;4.980;2023-04-02T11:13:20;22.20;91.30
10384;DHT22;5238;43.508;4.980;2023-04-02T11:15:53;22.10;91.30
10384;DHT22;5238;43.508;4.980;2023-04-02T11:18:26;22.00;91.30
10384;DHT22;5238;43.508;4.980;2023-04-02T11:20:59;21.90;91.30
10384;DHT22;5238;43.508;4.980;2023-04-02T11:23:36;21.60;91.30
10384;DHT22;5238;43.508;4.980;2023-04-02T11:26:27;21.50;91.30
10384;DHT22;5238;43.508;4.980;2023-04-02T11:29:06;21.30;91.30
10384;DHT22;5238;43.508;4.980;2023-04-02T11:31:36;21.10;91.30
10384;DHT22;5238;43.508;4.980;2023-04-02T11:34:04;20.90;91.30
10384;DHT22;5238;43.508;4.980;2023-04-02T11:44:17;20.70;91.30
10384;DHT22;5238;43.508;4.980;2023-04-02T11:53:57;20.50;91.30
10384;DHT22;5238;43.508;4.980;2023-04-02T11:56:29;20.40;91.30
10384;DHT22;5238;43.508;4.980;2023-04-02T14:17:17;19.50;91.30
10384;DHT22;5238;43.508;4.980;2023-04-02T15:09:43;19.00;91.30
10384;DHT22;5238;43.508;4.980;2023-04-02T15:12:19;19.00;91.30
10384;DHT22;5238;43.508;4.980;2023-04-02T15:15:03;18.90;91.30
10384;DHT22;5238;43.508;4.980;2023-04-02T15:17:33;18.90;91.30
10384;DHT22;5238;43.508;4.980;2023-04-02T15:20:10;18.90;91.30
10384;DHT22;5238;43.508;4.980;2023-04-02T15:22:41;18.90;91.30
10384;DHT22;5238;43.508;4.980;2023-04-02T15:25:20;18.90;91.30
10384;DHT22;5238;43.508;4.980;2023-04-02T15:28:02;19.00;91.30
10384;DHT22;5238;43.508;4.980;2023-04-02T15:30:46;19.00;91.30
10384;DHT22;5238;43.508;4.980;2023-04-02T15:33:41;19.00;91.30
10384;DHT22;5238;43.508;4.980;2023-04-02T15:36:39;19.00;91.30
10384;DHT22;5238;43.508;4.980;2023-04-02T15:39:45;19.00;91.30
10384;DHT22;5238;43.508;4.980;2023-04-02T15:42:25;19.00;91.30
10384;DHT22;5238;43.508;4.980;2023-04-02T15:45:28;18.90;91.30
10384;DHT22;5238;43.508;4.980;2023-04-02T15:48:26;18.90;91.30
10384;DHT22;5238;43.508;4.980;2023-04-02T15:51:09;18.90;91.30
10384;DHT22;5238;43.508;4.980;2023-04-02T15:53:51;18.80;91.30
10384;DHT22;5238;43.508;4.980;2023-04-02T15:56:25;18.80;91.30
10384;DHT22;5238;43.508;4.980;2023-04-02T15:59:35;18.80;91.30
10384;DHT22;5238;43.508;4.980;2023-04-02T16:05:01;18.80;91.30
10384;DHT22;5238;43.508;4.980;2023-04-02T16:10:34;18.70;91.30
10384;DHT22;5238;43.508;4.980;2023-04-02T16:13:12;18.70;91.30
10384;DHT22;5238;43.508;4.980;2023-04-02T16:15:48;18.70;91.30
10384;DHT22;5238;43.508;4.980;2023-04-02T16:18:23;18.60;91.30
10384;DHT22;5238;43.508;4.980;2023-04-02T16:20:53;18.50;91.30
10384;DHT22;5238;43.508;4.980;2023-04-02T16:23:28;18.50;91.30
10384;DHT22;5238;43.508;4.980;2023-04-02T16:26:05;18.40;91.30
10384;DHT22;5238;43.508;4.980;2023-04-02T16:32:15;18.30;91.30
10384;DHT22;5238;43.508;4.980;2023-04-02T16:34:58;18.20;91.30
10384;DHT22;5238;43.508;4.980;2023-04-02T16:37:35;18.10;91.30
10384;DHT22;5238;43.508;4.980;2023-04-02T16:40:14;18.00;91.30
10384;DHT22;5238;43.508;4.980;2023-04-02T16:42:47;18.00;91.30
10384;DHT22;5238;43.508;4.980;2023-04-02T16:45:25;17.90;91.30
10384;DHT22;5238;43.508;4.980;2023-04-02T16:48:07;17.80;91.30
10384;DHT22;5238;43.508;4.980;2023-04-02T16:50:45;17.70;91.30
10384;DHT22;5238;43.508;4.980;2023-04-02T16:53:27;17.60;91.30
10384;DHT22;5238;43.508;4.980;2023-04-02T16:56:30;17.50;91.30
10384;DHT22;5238;43.508;4.980;2023-04-02T16:59:17;17.50;91.30
10384;DHT22;5238;43.508;4.980;2023-04-02T17:01:54;17.40;91.30
10384;DHT22;5238;43.508;4.980;2023-04-02T17:05:14;17.30;91.30
10384;DHT22;5238;43.508;4.980;2023-04-02T17:07:50;17.30;91.30
10384;DHT22;5238;43.508;4.980;2023-04-02T17:10:26;17.20;91.30
10384;DHT22;5238;43.508;4.980;2023-04-02T17:13:11;17.10;91.30
10384;DHT22;5238;43.508;4.980;2023-04-02T17:16:05;17.10;91.30
10384;DHT22;5238;43.508;4.980;2023-04-02T17:18:37;17.00;91.30
10384;DHT22;5238;43.508;4.980;2023-04-02T17:21:13;17.00;91.30
10384;DHT22;5238;43.508;4.980;2023-04-02T17:23:54;16.90;91.30
10384;DHT22;5238;43.508;4.980;2023-04-02T17:27:04;16.80;91.30
10384;DHT22;5238;43.508;4.980;2023-04-02T18:20:44;15.60;91.30
10384;DHT22;5238;43.508;4.980;2023-04-02T18:31:01;15.30;91.30
10384;DHT22;5238;43.508;4.980;2023-04-02T18:33:54;15.30;91.30
10384;DHT22;5238;43.508;4.980;2023-04-02T18:36:29;15.20;91.30
10384;DHT22;5238;43.508;4.980;2023-04-02T18:39:02;15.20;91.30
10384;DHT22;5238;43.508;4.980;2023-04-02T18:41:41;15.10;91.30
10384;DHT22;5238;43.508;4.980;2023-04-02T18:44:33;15.10;91.30
10384;DHT22;5238;43.508;4.980;2023-04-02T18:47:10;15.00;91.30
10384;DHT22;5238;43.508;4.980;2023-04-02T18:49:46;15.00;91.30
10384;DHT22;5238;43.508;4.980;2023-04-02T18:52:17;15.00;91.30
10384;DHT22;5238;43.508;4.980;2023-04-02T18:54:48;14.90;91.30
10384;DHT22;5238;43.508;4.980;2023-04-02T18:57:19;14.90;91.30
10384;DHT22;5238;43.508;4.980;2023-04-02T18:59:53;14.80;91.30
10384;DHT22;5238;43.508;4.980;2023-04-02T19:02:32;14.80;91.30
10384;DHT22;5238;43.508;4.980;2023-04-02T19:05:03;14.80;91.30
10384;DHT22;5238;43.508;4.980;2023-04-02T19:07:35;14.70;91.30
10384;DHT22;5238;43.508;4.980;2023-04-02T19:10:22;14.70;91.30
10384;DHT22;5238;43.508;4.980;2023-04-02T19:12:51;14.70;91.30
10384;DHT22;5238;43.508;4.980;2023-04-02T19:15:19;14.70;91.30
10384;DHT22;5238;43.508;4.980;2023-04-02T19:17:53;14.70;91.30
10384;DHT22;5238;43.508;4.980;2023-04-02T19:20:29;14.60;91.30
10384;DHT22;5238;43.508;4.980;2023-04-02T19:23:07;14.60;91.30
10384;DHT22;5238;43.508;4.980;2023-04-02T19:25:44;14.60;91.30
10384;DHT22;5238;43.508;4.980;2023-04-02T19:28:23;14.60;91.30
10384;DHT22;5238;43.508;4.980;2023-04-02T19:31:01;14.50;91.30
10384;DHT22;5238;43.508;4.980;2023-04-02T19:33:48;14.50;91.30
10384;DHT22;5238;43.508;4.980;2023-04-02T19:42:11;14.40;91.30
10384;DHT22;5238;43.508;4.980;2023-04-02T19:44:48;14.40;91.30
10384;DHT22;5238;43.508;4.980;2023-04-02T19:47:18;14.30;91.30
10384;DHT22;5238;43.508;4.980;2023-04-02T19:49:47;14.30;91.30
10384;DHT22;5238;43.508;4.980;2023-04-02T19:52:14;14.30;91.30
10384;DHT22;5238;43.508;4.980;2023-04-02T19:54:43;14.20;91.30
10384;DHT22;5238;43.508;4.980;2023-04-02T19:57:11;14.30;91.30
10384;DHT22;5238;43.508;4.980;2023-04-02T19:59:39;14.20;91.30
10384;DHT22;5238;43.508;4.980;2023-04-02T20:02:10;14.20;91.30
10384;DHT22;5238;43.508;4.980;2023-04-02T20:04:37;14.20;91.30
10384;DHT22;5238;43.508;4.980;2023-04-02T20:07:05;14.20;91.30
10384;DHT22;5238;43.508;4.980;2023-04-02T20:09:36;14.20;91.30
10384;DHT22;5238;43.508;4.980;2023-04-02T20:12:06;14.20;91.30
10384;DHT22;5238;43.508;4.980;2023-04-02T20:14:34;14.20;91.30
10384;DHT22;5238;43.508;4.980;2023-04-02T20:17:01;14.10;91.30
10384;DHT22;5238;43.508;4.980;2023-04-02T20:19:29;14.10;91.30
10384;DHT22;5238;43.508;4.980;2023-04-02T20:21:56;14.10;91.30
10384;DHT22;5238;43.508;4.980;2023-04-02T20:24:27;14.10;91.30
10384;DHT22;5238;43.508;4.980;2023-04-02T20:26:54;14.10;91.30
10384;DHT22;5238;43.508;4.980;2023-04-02T20:29:21;14.10;91.30
10384;DHT22;5238;43.508;4.980;2023-04-02T20:31:52;14.00;91.30
10384;DHT22;5238;43.508;4.980;2023-04-02T20:34:20;14.00;91.30
10384;DHT22;5238;43.508;4.980;2023-04-02T20:36:48;14.00;91.30
10384;DHT22;5238;43.508;4.980;2023-04-02T20:39:16;14.00;91.30
10384;DHT22;5238;43.508;4.980;2023-04-02T20:41:46;14.00;91.30
10384;DHT22;5238;43.508;4.980;2023-04-02T20:44:13;14.00;91.30
10384;DHT22;5238;43.508;4.980;2023-04-02T20:46:44;13.90;91.30
10384;DHT22;5238;43.508;4.980;2023-04-02T20:49:13;13.90;91.30
10384;DHT22;5238;43.508;4.980;2023-04-02T20:51:42;13.90;91.30
10384;DHT22;5238;43.508;4.980;2023-04-02T20:54:11;13.90;91.30
10384;DHT22;5238;43.508;4.980;2023-04-02T20:56:38;13.90;91.30
10384;DHT22;5238;43.508;4.980;2023-04-02T20:59:07;13.90;91.30
10384;DHT22;5238;43.508;4.980;2023-04-02T21:01:33;13.80;91.30
10384;DHT22;5238;43.508;4.980;2023-04-02T21:04:04;13.90;91.30
10384;DHT22;5238;43.508;4.980;2023-04-02T21:06:33;13.90;91.30
10384;DHT22;5238;43.508;4.980;2023-04-02T21:09:04;13.80;91.30
10384;DHT22;5238;43.508;4.980;2023-04-02T21:11:31;13.80;91.30
10384;DHT22;5238;43.508;4.980;2023-04-02T21:13:59;13.80;91.30
10384;DHT22;5238;43.508;4.980;2023-04-02T21:16:29;13.80;91.30
10384;DHT22;5238;43.508;4.980;2023-04-02T21:18:59;13.80;91.30
10384;DHT22;5238;43.508;4.980;2023-04-02T21:21:27;13.70;91.30
10384;DHT22;5238;43.508;4.980;2023-04-02T21:30:51;13.70;91.30
10384;DHT22;5238;43.508;4.980;2023-04-02T21:33:20;13.70;91.30
10384;DHT22;5238;43.508;4.980;2023-04-02T21:35:48;13.70;91.30
10384;DHT22;5238;43.508;4.980;2023-04-02T21:38:34;13.70;91.30
10384;DHT22;5238;43.508;4.980;2023-04-02T21:41:45;13.60;91.30
10384;DHT22;5238;43.508;4.980;2023-04-02T21:44:24;13.60;91.30
10384;DHT22;5238;43.508;4.980;2023-04-02T21:46:51;13.60;91.30
10384;DHT22;5238;43.508;4.980;2023-04-02T21:49:21;13.60;91.30
10384;DHT22;5238;43.508;4.980;2023-04-02T21:51:51;13.60;91.30
10384;DHT22;5238;43.508;4.980;2023-04-02T21:54:18;13.60;91.30
10384;DHT22;5238;43.508;4.980;2023-04-02T21:56:46;13.60;91.30
10384;DHT22;5238;43.508;4.980;2023-04-02T21:59:33;13.60;91.30
10384;DHT22;5238;43.508;4.980;2023-04-02T22:02:04;13.60;91.30
10384;DHT22;5238;43.508;4.980;2023-04-02T22:04:36;13.60;91.30
10384;DHT22;5238;43.508;4.980;2023-04-02T22:10:12;13.50;91.30
10384;DHT22;5238;43.508;4.980;2023-04-02T22:12:57;13.50;91.30
10384;DHT22;5238;43.508;4.980;2023-04-02T22:15:25;13.50;91.30
10384;DHT22;5238;43.508;4.980;2023-04-02T22:17:52;13.50;91.30
10384;DHT22;5238;43.508;4.980;2023-04-02T22:20:39;13.40;91.30
10384;DHT22;5238;43.508;4.980;2023-04-02T22:23:06;13.40;91.30
10384;DHT22;5238;43.508;4.980;2023-04-02T22:25:49;13.40;91.30
10384;DHT22;5238;43.508;4.980;2023-04-02T22:31:34;13.40;91.30
10384;DHT22;5238;43.508;4.980;2023-04-02T22:54:24;13.20;91.30
10384;DHT22;5238;43.508;4.980;2023-04-02T22:56:51;13.20;91.30
10384;DHT22;5238;43.508;4.980;2023-04-02T22:59:18;13.20;91.30
10384;DHT22;5238;43.508;4.980;2023-04-02T23:01:59;13.20;91.30
10384;DHT22;5238;43.508;4.980;2023-04-02T23:04:28;13.10;91.30
10384;DHT22;5238;43.508;4.980;2023-04-02T23:06:57;13.10;91.30
10384;DHT22;5238;43.508;4.980;2023-04-02T23:09:29;13.10;91.30
10384;DHT22;5238;43.508;4.980;2023-04-02T23:11:56;13.10;91.30
10384;DHT22;5238;43.508;4.980;2023-04-02T23:14:24;13.10;91.30
10384;DHT22;5238;43.508;4.980;2023-04-02T23:16:53;13.10;91.30
10384;DHT22;5238;43.508;4.980;2023-04-02T23:19:20;13.10;91.30
10384;DHT22;5238;43.508;4.980;2023-04-02T23:21:47;13.00;91.30
10384;DHT22;5238;43.508;4.980;2023-04-02T23:24:19;13.00;91.30
10384;DHT22;5238;43.508;4.980;2023-04-02T23:27:09;13.00;91.30
10384;DHT22;5238;43.508;4.980;2023-04-02T23:29:50;13.00;91.30
10384;DHT22;5238;43.508;4.980;2023-04-02T23:32:20;13.00;91.30
10384;DHT22;5238;43.508;4.980;2023-04-02T23:34:53;13.00;91.30
10384;DHT22;5238;43.508;4.980;2023-04-02T23:37:21;13.00;91.30
10384;DHT22;5238;43.508;4.980;2023-04-02T23:39:51;12.90;91.30
10384;DHT22;5238;43.508;4.980;2023-04-02T23:42:29;12.90;91.30
10384;DHT22;5238;43.508;4.980;2023-04-02T23:45:08;12.90;91.30
10384;DHT22;5238;43.508;4.980;2023-04-02T23:47:41;12.90;91.30
10384;DHT22;5238;43.508;4.980;2023-04-02T23:50:09;12.90;91.30
10384;DHT22;5238;43.508;4.980;2023-04-02T23:52:36;12.90;91.30
10384;DHT22;5238;43.508;4.980;2023-04-02T23:55:03;12.90;91.30
10384;DHT22;5238;43.508;4.980;2023-04-02T23:57:51;12.90;91.30
